powered by Meteolive.it
Dati meteo   Attuali  Passati Ogni 3 ore 7 Giorni 15 Giorni Avvisi Meteo Mappe meteo
Palermo / Punta Raisi, Italy
Alba: 7:15 AM UTC1
Tramonto: 4:47 PM UTC1
 Lat: 38.17N, Lon: 13.08E
ICAO Usato: LICJ
Condizioni Meteo Attuali Aggiornate: 14.12.2017 alle 07:20 LT
Parz Nuvoloso
Parz Nuvoloso
Parz Nuvoloso
N/D
Temp: 14°C
Umidita': 67%
Direz/Vel. Vento: W 10 KTS raffiche
Pressione: 1022 hPa
Punto di rugiada: 8°C
Temperatura percepita: 13°C
Visibilitą: >10 KM (ottima)
Temperatura percepita in
presenza di vento (Wind Chill)
:
12°C
T. max (ultime 24 ore): 15°C
T. min (ultime 24 ore): 14°C


METAR ORIGINALE
LICJ 140520Z 27010KT 9999 SCT030 14/08 Q1022